Time;durP1;ratioP1;P1;durP2;ratioP2;P2;SDS_P1;SDS_P2;PMS_P1;PMS_P2;Temp;Humidity;BMP_temperature;BMP_pressure;BME280_temperature;BME280_humidity;BME280_pressure;Samples;Min_cycle;Max_cycle;Signal;HPM_P1;HPM_P2
2023/09/22 00:00:59;;;;;;;0.50;0.50;;;22.90;89.10;;;;;;4945614;28;20200;-72
2023/09/22 00:03:26;;;;;;;1.52;0.80;;;22.90;89.10;;;;;;4956801;28;20209;-72
2023/09/22 00:05:52;;;;;;;0.68;0.68;;;22.90;89.10;;;;;;4979673;28;20275;-71
2023/09/22 00:08:19;;;;;;;1.00;0.90;;;22.90;89.10;;;;;;4970000;28;20205;-71
2023/09/22 00:10:45;;;;;;;0.60;0.60;;;22.90;89.10;;;;;;4943050;28;20702;-72
2023/09/22 00:13:11;;;;;;;0.55;0.55;;;22.90;89.20;;;;;;4948709;28;20189;-71
2023/09/22 00:15:37;;;;;;;0.60;0.60;;;22.90;89.20;;;;;;4945911;28;20201;-71
2023/09/22 00:18:03;;;;;;;0.88;0.55;;;22.90;89.10;;;;;;4951763;28;20201;-71
2023/09/22 00:20:30;;;;;;;1.00;0.90;;;22.90;89.10;;;;;;4946509;28;20276;-72
2023/09/22 00:22:55;;;;;;;1.67;0.50;;;22.90;89.10;;;;;;4967165;28;20185;-72
2023/09/22 00:25:25;;;;;;;0.60;0.60;;;22.90;89.10;;;;;;4988389;28;20276;-72
2023/09/22 00:27:50;;;;;;;0.70;0.70;;;22.90;89.10;;;;;;4967151;28;20211;-72
2023/09/22 00:30:16;;;;;;;1.00;0.80;;;22.90;89.10;;;;;;4945758;28;20197;-72
2023/09/22 00:32:42;;;;;;;0.80;0.80;;;22.90;89.00;;;;;;4955476;28;20191;-72
2023/09/22 00:35:11;;;;;;;1.58;0.70;;;22.90;89.00;;;;;;4961827;28;20194;-71
2023/09/22 00:37:40;;;;;;;0.60;0.60;;;22.90;89.00;;;;;;4957598;28;20224;-72
2023/09/22 00:40:12;;;;;;;0.60;0.60;;;22.90;89.10;;;;;;4965268;28;20181;-72
2023/09/22 00:42:38;;;;;;;1.45;0.70;;;22.90;89.10;;;;;;4945745;28;20193;-71
2023/09/22 00:45:05;;;;;;;0.77;0.60;;;22.90;89.10;;;;;;4961437;28;20257;-71
2023/09/22 00:47:31;;;;;;;0.60;0.60;;;22.90;89.10;;;;;;4959201;28;20603;-71
2023/09/22 00:49:57;;;;;;;0.52;0.52;;;22.90;89.10;;;;;;4945694;28;20182;-71
2023/09/22 00:52:25;;;;;;;0.60;0.60;;;22.90;89.10;;;;;;4939428;28;20182;-71
2023/09/22 00:54:51;;;;;;;0.70;0.70;;;22.90;89.10;;;;;;4950646;28;20236;-71
2023/09/22 00:57:18;;;;;;;0.77;0.60;;;22.90;89.10;;;;;;4941344;28;20213;-71
2023/09/22 00:59:46;;;;;;;0.60;0.60;;;22.90;89.10;;;;;;4942381;28;20279;-71
2023/09/22 01:02:12;;;;;;;0.70;0.70;;;22.90;89.10;;;;;;4957981;28;20205;-71
2023/09/22 01:04:37;;;;;;;0.70;0.70;;;22.90;89.10;;;;;;4960851;28;20193;-71
2023/09/22 01:07:06;;;;;;;3.35;0.93;;;22.90;89.10;;;;;;4961076;28;20213;-72
2023/09/22 01:09:32;;;;;;;0.63;0.50;;;22.90;89.10;;;;;;4950461;28;20189;-71
2023/09/22 01:11:58;;;;;;;0.60;0.60;;;22.90;89.10;;;;;;4965579;28;20235;-71
2023/09/22 01:14:23;;;;;;;0.98;0.70;;;22.90;89.10;;;;;;4961771;28;20223;-71
2023/09/22 01:16:51;;;;;;;0.60;0.60;;;22.90;89.10;;;;;;4933527;28;20229;-72
2023/09/22 01:19:17;;;;;;;0.60;0.60;;;22.90;89.10;;;;;;4966372;28;20204;-71
2023/09/22 01:21:44;;;;;;;0.60;0.60;;;22.90;89.10;;;;;;4967517;28;20194;-71
2023/09/22 01:24:13;;;;;;;0.57;0.55;;;22.90;89.10;;;;;;4949270;28;20243;-71
2023/09/22 01:26:40;;;;;;;0.70;0.70;;;22.80;89.00;;;;;;4967707;28;20220;-72
2023/09/22 01:29:09;;;;;;;0.60;0.60;;;22.90;89.10;;;;;;4984937;28;20232;-71
2023/09/22 01:31:35;;;;;;;0.50;0.47;;;22.80;89.00;;;;;;4947537;28;20669;-72
2023/09/22 01:34:02;;;;;;;0.60;0.55;;;22.90;89.10;;;;;;4968075;28;20265;-71
2023/09/22 01:36:28;;;;;;;0.50;0.50;;;22.90;89.00;;;;;;4948226;28;20204;-71
2023/09/22 01:38:57;;;;;;;0.85;0.60;;;22.80;89.70;;;;;;4964288;28;20205;-71
2023/09/22 01:41:24;;;;;;;0.60;0.60;;;22.90;89.00;;;;;;4953030;28;20200;-71
2023/09/22 01:43:49;;;;;;;0.68;0.60;;;22.80;88.90;;;;;;4947732;28;20240;-72
2023/09/22 01:46:15;;;;;;;0.80;0.50;;;22.80;89.00;;;;;;4968667;28;20292;-71
2023/09/22 01:48:41;;;;;;;0.80;0.60;;;22.80;88.90;;;;;;4949413;28;20186;-71
2023/09/22 01:51:07;;;;;;;0.60;0.60;;;22.80;89.00;;;;;;4950709;28;20645;-72
2023/09/22 01:53:35;;;;;;;0.75;0.70;;;22.80;88.90;;;;;;4949000;28;20190;-71
2023/09/22 01:56:00;;;;;;;0.60;0.60;;;22.80;88.90;;;;;;4962458;28;20221;-71
2023/09/22 01:58:26;;;;;;;0.70;0.70;;;22.80;89.00;;;;;;4953504;28;20300;-72
2023/09/22 02:00:52;;;;;;;0.82;0.77;;;22.90;89.00;;;;;;4953917;28;20668;-73
2023/09/22 02:03:18;;;;;;;0.60;0.60;;;22.80;89.60;;;;;;4947869;28;20619;-71
2023/09/22 02:05:44;;;;;;;0.57;0.57;;;22.80;88.90;;;;;;4980465;28;20333;-73
2023/09/22 02:08:10;;;;;;;0.88;0.88;;;22.80;88.90;;;;;;4947149;28;20205;-71
2023/09/22 02:10:36;;;;;;;0.65;0.60;;;22.80;88.80;;;;;;4947766;28;20186;-71
2023/09/22 02:13:01;;;;;;;0.75;0.60;;;22.80;88.80;;;;;;4950506;28;20304;-71
2023/09/22 02:15:28;;;;;;;1.30;0.70;;;22.80;88.90;;;;;;4958299;28;20196;-71
2023/09/22 02:17:54;;;;;;;0.73;0.60;;;22.80;88.90;;;;;;4950008;28;20209;-71
2023/09/22 02:20:23;;;;;;;0.50;0.50;;;22.80;88.90;;;;;;4967759;28;20192;-71
2023/09/22 02:22:55;;;;;;;0.70;0.50;;;22.80;88.90;;;;;;4953528;28;20189;-71
2023/09/22 02:25:22;;;;;;;0.70;0.70;;;22.80;88.80;;;;;;4953090;28;20190;-71
2023/09/22 02:27:50;;;;;;;0.55;0.52;;;22.80;88.80;;;;;;4951262;28;20212;-71
2023/09/22 02:30:17;;;;;;;0.60;0.60;;;22.80;88.90;;;;;;4955923;28;20200;-72
2023/09/22 02:32:54;;;;;;;0.70;0.60;;;22.80;88.90;;;;;;4946988;28;20247;-71
2023/09/22 02:35:23;;;;;;;0.85;0.60;;;22.80;88.70;;;;;;4940237;28;20244;-71
2023/09/22 02:37:49;;;;;;;0.70;0.70;;;22.80;88.80;;;;;;4952976;28;20293;-71
2023/09/22 02:40:15;;;;;;;0.65;0.65;;;22.80;88.90;;;;;;4941706;28;20205;-71
2023/09/22 02:42:43;;;;;;;0.77;0.77;;;22.80;88.80;;;;;;4953767;28;20275;-71
2023/09/22 02:45:09;;;;;;;0.73;0.70;;;22.80;88.80;;;;;;4937423;28;20197;-71
2023/09/22 02:47:40;;;;;;;0.88;0.60;;;22.80;88.80;;;;;;4941655;28;20268;-71
2023/09/22 02:50:10;;;;;;;0.75;0.68;;;22.80;88.80;;;;;;4938524;28;20186;-71
2023/09/22 02:52:39;;;;;;;0.60;0.60;;;22.80;88.80;;;;;;4957431;28;20282;-71
2023/09/22 02:55:09;;;;;;;0.70;0.70;;;22.80;88.70;;;;;;4941555;28;20597;-71
2023/09/22 02:57:36;;;;;;;0.60;0.60;;;22.80;88.70;;;;;;4945708;28;20309;-71
2023/09/22 03:00:18;;;;;;;0.82;0.82;;;22.80;88.80;;;;;;4952889;28;20182;-71
2023/09/22 03:02:44;;;;;;;0.60;0.60;;;22.80;88.70;;;;;;4936438;28;20205;-71
2023/09/22 03:05:10;;;;;;;0.60;0.60;;;22.80;88.80;;;;;;4952370;28;20189;-69
2023/09/22 03:07:39;;;;;;;0.45;0.45;;;22.80;88.70;;;;;;4952095;28;20221;-71
2023/09/22 03:10:06;;;;;;;0.70;0.70;;;22.80;88.70;;;;;;4934089;29;20190;-71
2023/09/22 03:12:34;;;;;;;0.55;0.55;;;22.80;88.70;;;;;;4949624;28;20190;-71
2023/09/22 03:15:00;;;;;;;0.70;0.63;;;22.80;88.70;;;;;;4937151;28;20561;-71
2023/09/22 03:17:26;;;;;;;0.70;0.57;;;22.70;88.50;;;;;;4948957;28;20221;-71
2023/09/22 03:19:52;;;;;;;0.50;0.50;;;22.70;88.60;;;;;;4956871;28;20200;-71
2023/09/22 03:22:18;;;;;;;0.57;0.57;;;22.80;88.70;;;;;;4974555;28;20193;-71
2023/09/22 03:24:44;;;;;;;0.55;0.55;;;22.80;88.70;;;;;;4941155;28;20190;-71
2023/09/22 03:27:10;;;;;;;0.70;0.70;;;22.80;88.80;;;;;;4940441;28;20280;-73
2023/09/22 03:29:36;;;;;;;0.80;0.70;;;22.80;88.80;;;;;;4960598;28;20616;-71
2023/09/22 03:32:03;;;;;;;0.90;0.50;;;22.80;88.70;;;;;;4940753;28;20181;-71
2023/09/22 03:34:28;;;;;;;0.55;0.55;;;22.80;88.60;;;;;;4940634;28;20193;-72
2023/09/22 03:36:54;;;;;;;0.63;0.63;;;22.80;88.60;;;;;;4950346;28;20225;-71
2023/09/22 03:39:22;;;;;;;0.73;0.73;;;22.80;88.60;;;;;;4961723;28;20189;-71
2023/09/22 03:41:54;;;;;;;0.50;0.50;;;22.70;88.60;;;;;;4978666;28;20197;-71
2023/09/22 03:44:20;;;;;;;0.47;0.47;;;22.70;88.60;;;;;;4949039;28;20196;-71
2023/09/22 03:46:46;;;;;;;0.60;0.60;;;22.70;88.50;;;;;;4959087;28;20224;-71
2023/09/22 03:49:12;;;;;;;0.50;0.50;;;22.70;88.60;;;;;;4956519;28;20610;-71
2023/09/22 03:51:38;;;;;;;0.60;0.60;;;22.70;88.50;;;;;;4945318;29;20194;-72
2023/09/22 03:54:05;;;;;;;0.57;0.57;;;22.70;88.60;;;;;;4968051;28;20208;-71
2023/09/22 03:56:32;;;;;;;0.45;0.45;;;22.70;88.50;;;;;;4936305;29;20249;-71
2023/09/22 03:58:57;;;;;;;0.60;0.60;;;22.70;88.50;;;;;;4958816;28;20657;-71
2023/09/22 04:01:23;;;;;;;0.60;0.60;;;22.70;88.50;;;;;;4952364;28;20676;-71
2023/09/22 04:03:50;;;;;;;0.80;0.80;;;22.70;88.50;;;;;;4963010;28;20194;-71
2023/09/22 04:06:15;;;;;;;0.60;0.60;;;22.70;88.50;;;;;;4959391;28;20659;-71
2023/09/22 04:08:41;;;;;;;0.50;0.50;;;22.70;88.50;;;;;;4959418;28;20217;-71
2023/09/22 04:11:09;;;;;;;0.60;0.55;;;22.70;88.50;;;;;;4944046;28;20190;-71
2023/09/22 04:13:35;;;;;;;0.70;0.70;;;22.70;88.60;;;;;;4940141;28;20284;-71
2023/09/22 04:16:01;;;;;;;0.50;0.50;;;22.70;88.40;;;;;;4943137;28;20197;-71
2023/09/22 04:18:30;;;;;;;0.47;0.47;;;22.70;88.60;;;;;;4956475;28;20228;-71
2023/09/22 04:20:57;;;;;;;0.70;0.60;;;22.70;88.60;;;;;;4977039;28;20712;-71
2023/09/22 04:23:25;;;;;;;0.63;0.60;;;22.70;88.50;;;;;;4969738;28;20197;-71
2023/09/22 04:25:54;;;;;;;0.70;0.70;;;22.70;89.20;;;;;;4964673;28;20213;-71
2023/09/22 04:28:23;;;;;;;0.55;0.55;;;22.70;88.50;;;;;;4972974;28;20225;-71
2023/09/22 04:30:49;;;;;;;0.60;0.60;;;22.70;88.50;;;;;;4943094;28;20193;-71
2023/09/22 04:33:15;;;;;;;0.40;0.40;;;22.70;88.30;;;;;;4945261;28;20227;-71
2023/09/22 04:35:41;;;;;;;0.55;0.55;;;22.70;88.30;;;;;;4958868;28;20197;-71
2023/09/22 04:38:09;;;;;;;0.60;0.60;;;22.70;88.30;;;;;;4942592;28;20208;-71
2023/09/22 04:40:38;;;;;;;0.50;0.50;;;22.70;88.30;;;;;;4961635;28;20719;-72
2023/09/22 04:43:08;;;;;;;0.77;0.77;;;22.70;88.30;;;;;;4961343;28;20182;-73
2023/09/22 04:45:43;;;;;;;0.70;0.70;;;22.70;88.40;;;;;;4953689;28;20243;-71
2023/09/22 04:48:10;;;;;;;0.65;0.65;;;22.70;88.40;;;;;;4942366;28;20209;-71
2023/09/22 04:50:38;;;;;;;0.63;0.60;;;22.70;88.40;;;;;;4955615;28;20289;-71
2023/09/22 04:53:04;;;;;;;0.60;0.60;;;22.70;88.40;;;;;;4961362;28;20178;-72
2023/09/22 04:55:35;;;;;;;0.60;0.60;;;22.70;88.30;;;;;;4961383;28;20188;-72
2023/09/22 04:58:08;;;;;;;0.60;0.60;;;22.70;88.40;;;;;;4949246;28;20206;-71
2023/09/22 05:00:36;;;;;;;0.60;0.60;;;22.70;88.50;;;;;;4960098;28;20197;-72
2023/09/22 05:03:05;;;;;;;1.38;0.73;;;22.70;88.30;;;;;;4943601;28;20597;-71
2023/09/22 05:05:31;;;;;;;0.60;0.55;;;22.70;88.40;;;;;;4943015;28;20213;-72
2023/09/22 05:07:57;;;;;;;0.70;0.65;;;22.70;88.30;;;;;;4947305;28;20602;-72
2023/09/22 05:10:23;;;;;;;0.47;0.47;;;22.70;88.30;;;;;;4944576;28;20194;-72
2023/09/22 05:12:52;;;;;;;0.57;0.50;;;22.70;88.30;;;;;;4946144;28;20185;-71
2023/09/22 05:15:19;;;;;;;0.63;0.63;;;22.70;88.30;;;;;;4977889;28;20194;-71
2023/09/22 05:17:44;;;;;;;0.60;0.60;;;22.70;88.30;;;;;;4961611;28;20214;-71
2023/09/22 05:20:14;;;;;;;0.50;0.50;;;22.70;88.30;;;;;;4962249;28;20189;-71
2023/09/22 05:22:41;;;;;;;0.75;0.50;;;22.70;88.30;;;;;;4957310;28;20194;-71
2023/09/22 05:25:08;;;;;;;0.50;0.50;;;22.70;88.30;;;;;;4978144;28;20186;-72
2023/09/22 05:27:35;;;;;;;0.47;0.40;;;22.70;88.40;;;;;;4945423;28;20225;-71
2023/09/22 05:30:03;;;;;;;0.70;0.70;;;22.70;88.40;;;;;;4952613;28;20195;-71
2023/09/22 05:32:28;;;;;;;0.55;0.55;;;22.70;88.40;;;;;;4951082;28;20235;-71
2023/09/22 05:34:54;;;;;;;1.10;0.70;;;22.70;88.60;;;;;;4950764;28;20265;-71
2023/09/22 05:37:20;;;;;;;0.65;0.55;;;22.60;88.30;;;;;;4949732;28;20595;-71
2023/09/22 05:39:46;;;;;;;0.40;0.40;;;22.70;88.40;;;;;;4943031;28;20193;-71
2023/09/22 05:42:11;;;;;;;0.63;0.63;;;22.60;88.20;;;;;;4960669;28;20184;-71
2023/09/22 05:44:37;;;;;;;0.50;0.50;;;22.60;88.20;;;;;;4964960;28;20189;-72
2023/09/22 05:47:04;;;;;;;0.70;0.70;;;22.70;88.40;;;;;;4945317;28;20708;-71
2023/09/22 05:49:30;;;;;;;0.55;0.55;;;22.70;88.40;;;;;;4942565;28;20197;-71
2023/09/22 05:51:56;;;;;;;0.60;0.60;;;22.70;89.10;;;;;;4945369;28;20189;-71
2023/09/22 05:54:21;;;;;;;0.70;0.70;;;22.70;88.40;;;;;;4964079;28;20199;-71
2023/09/22 05:56:47;;;;;;;0.73;0.63;;;22.70;88.30;;;;;;4961974;28;20296;-71
2023/09/22 05:59:13;;;;;;;0.70;0.70;;;22.70;88.30;;;;;;4942125;28;20201;-72
2023/09/22 06:01:39;;;;;;;0.47;0.43;;;22.70;88.30;;;;;;4964549;28;20205;-71
2023/09/22 06:04:06;;;;;;;1.00;0.50;;;22.70;89.10;;;;;;4969715;28;20691;-73
2023/09/22 06:06:32;;;;;;;0.60;0.60;;;22.70;88.30;;;;;;4955800;28;20216;-72
2023/09/22 06:09:01;;;;;;;0.70;0.70;;;22.60;88.20;;;;;;4978730;28;20182;-72
2023/09/22 06:11:27;;;;;;;0.60;0.60;;;22.70;88.30;;;;;;4962257;28;20198;-70
2023/09/22 06:13:53;;;;;;;0.77;0.60;;;22.60;88.20;;;;;;4966134;28;20193;-74
2023/09/22 06:16:19;;;;;;;0.73;0.60;;;22.60;88.10;;;;;;4959668;28;20215;-70
2023/09/22 06:18:45;;;;;;;0.50;0.50;;;22.60;88.20;;;;;;4961386;28;20190;-71
2023/09/22 06:21:11;;;;;;;0.50;0.50;;;22.60;88.20;;;;;;4961404;28;20190;-71
2023/09/22 06:23:38;;;;;;;0.75;0.60;;;22.60;88.20;;;;;;4959764;28;20498;-71
2023/09/22 06:26:06;;;;;;;0.98;0.80;;;22.60;88.20;;;;;;4967511;28;20271;-71
2023/09/22 06:28:32;;;;;;;0.50;0.50;;;22.70;88.40;;;;;;4951563;28;20233;-71
2023/09/22 06:31:03;;;;;;;0.65;0.57;;;22.60;88.20;;;;;;4975190;28;20245;-71
2023/09/22 06:33:32;;;;;;;0.60;0.60;;;22.60;88.10;;;;;;4958274;28;20185;-72
2023/09/22 06:36:02;;;;;;;1.08;0.50;;;22.60;88.20;;;;;;4977954;28;20220;-71
2023/09/22 06:38:29;;;;;;;0.60;0.60;;;22.60;88.20;;;;;;4960765;28;20221;-71
2023/09/22 06:40:55;;;;;;;0.60;0.60;;;22.60;88.20;;;;;;4960217;28;20201;-71
2023/09/22 06:43:25;;;;;;;0.85;0.70;;;22.60;88.20;;;;;;4957423;28;20189;-71
2023/09/22 06:45:53;;;;;;;0.50;0.50;;;22.60;88.10;;;;;;4958566;28;20595;-71
2023/09/22 06:48:25;;;;;;;0.60;0.60;;;22.60;88.20;;;;;;4945591;28;20244;-71
2023/09/22 06:50:57;;;;;;;0.60;0.60;;;22.60;88.20;;;;;;4966113;28;20181;-71
2023/09/22 06:53:26;;;;;;;0.80;0.60;;;22.60;88.20;;;;;;4945374;28;20268;-71
2023/09/22 06:56:07;;;;;;;0.63;0.63;;;22.60;88.10;;;;;;4946366;28;20193;-71
2023/09/22 06:58:38;;;;;;;0.60;0.60;;;22.60;88.10;;;;;;4942594;28;20217;-71
2023/09/22 07:01:14;;;;;;;0.70;0.70;;;22.60;88.10;;;;;;4941723;28;20233;-71
2023/09/22 07:03:42;;;;;;;0.40;0.40;;;22.60;88.20;;;;;;4953040;28;20301;-72
2023/09/22 07:06:11;;;;;;;0.90;0.50;;;22.60;88.20;;;;;;4976306;28;20214;-72
2023/09/22 07:08:37;;;;;;;0.50;0.50;;;22.60;88.20;;;;;;4958017;28;20216;-71
2023/09/22 07:11:10;;;;;;;0.70;0.70;;;22.60;88.20;;;;;;4940949;28;20225;-71
2023/09/22 07:13:37;;;;;;;0.50;0.50;;;22.60;88.20;;;;;;4935961;28;20193;-71
2023/09/22 07:16:04;;;;;;;0.57;0.55;;;22.60;88.10;;;;;;4941365;28;20190;-72
2023/09/22 07:18:29;;;;;;;1.23;0.57;;;22.60;88.10;;;;;;4956703;28;20263;-71
2023/09/22 07:20:56;;;;;;;0.55;0.55;;;22.60;88.10;;;;;;4949707;28;20193;-70
2023/09/22 07:23:23;;;;;;;0.82;0.60;;;22.60;88.10;;;;;;4957471;28;20197;-71
2023/09/22 07:25:58;;;;;;;0.60;0.60;;;22.60;88.10;;;;;;4965294;28;20719;-71
2023/09/22 07:28:25;;;;;;;0.60;0.50;;;22.60;88.00;;;;;;4966063;28;20200;-71
2023/09/22 07:30:51;;;;;;;0.70;0.60;;;22.60;88.00;;;;;;4948533;28;20181;-71
2023/09/22 07:33:17;;;;;;;0.68;0.68;;;22.60;88.00;;;;;;4960475;28;20683;-71
2023/09/22 07:35:46;;;;;;;0.70;0.70;;;22.60;88.00;;;;;;4963209;28;20562;-72
2023/09/22 07:38:11;;;;;;;0.60;0.60;;;22.60;88.00;;;;;;4957051;28;20205;-71
2023/09/22 07:40:37;;;;;;;1.20;0.52;;;22.60;88.00;;;;;;4940849;28;20212;-71
2023/09/22 07:43:04;;;;;;;1.00;0.73;;;22.60;88.10;;;;;;4940412;28;20240;-71
2023/09/22 07:45:29;;;;;;;0.47;0.47;;;22.60;88.00;;;;;;4940236;28;20300;-72
2023/09/22 07:47:55;;;;;;;0.43;0.43;;;22.60;88.00;;;;;;4956386;28;20394;-71
2023/09/22 07:50:21;;;;;;;0.50;0.50;;;22.60;88.00;;;;;;4947242;28;20194;-71
2023/09/22 07:52:47;;;;;;;0.73;0.60;;;22.60;88.00;;;;;;4957363;28;20197;-71
2023/09/22 07:55:15;;;;;;;0.57;0.40;;;22.60;88.00;;;;;;4941195;28;20197;-71
2023/09/22 07:57:41;;;;;;;0.65;0.65;;;22.70;88.20;;;;;;4941052;28;20210;-71
2023/09/22 08:00:10;;;;;;;0.60;0.55;;;22.60;88.10;;;;;;4940485;28;20194;-71
2023/09/22 08:02:39;;;;;;;0.50;0.50;;;22.60;88.00;;;;;;4956004;28;20228;-71
2023/09/22 08:05:05;;;;;;;0.82;0.50;;;22.60;88.80;;;;;;4940381;28;20193;-72
2023/09/22 08:07:31;;;;;;;0.50;0.50;;;22.60;88.80;;;;;;4939700;28;20240;-71
2023/09/22 08:09:57;;;;;;;0.75;0.50;;;22.60;88.10;;;;;;4956895;28;20589;-71
2023/09/22 08:12:23;;;;;;;0.50;0.50;;;22.60;88.10;;;;;;4948009;28;20228;-71
2023/09/22 08:14:49;;;;;;;0.50;0.50;;;22.60;88.10;;;;;;4936713;29;20194;-72
2023/09/22 08:17:15;;;;;;;0.57;0.50;;;22.60;88.10;;;;;;4953083;28;20306;-72
2023/09/22 08:19:41;;;;;;;0.82;0.60;;;22.60;88.00;;;;;;4936562;29;20230;-71
2023/09/22 08:22:07;;;;;;;0.70;0.70;;;22.60;88.00;;;;;;4970329;28;20224;-72
2023/09/22 08:24:32;;;;;;;0.63;0.63;;;22.60;88.00;;;;;;4936931;29;20221;-71
2023/09/22 08:26:59;;;;;;;0.60;0.60;;;22.60;88.00;;;;;;4967180;28;20229;-71
2023/09/22 08:29:26;;;;;;;1.10;0.70;;;22.60;88.00;;;;;;4981015;28;20207;-71
2023/09/22 08:31:51;;;;;;;1.42;0.73;;;22.60;88.00;;;;;;4955161;28;20190;-71
2023/09/22 08:34:17;;;;;;;0.63;0.60;;;22.60;88.00;;;;;;4957208;28;20193;-71
2023/09/22 08:36:43;;;;;;;0.50;0.50;;;22.60;88.10;;;;;;4958464;28;20299;-71
2023/09/22 08:39:09;;;;;;;0.65;0.65;;;22.60;88.10;;;;;;4950703;28;20181;-71
2023/09/22 08:41:38;;;;;;;0.55;0.55;;;22.60;88.10;;;;;;4980255;28;20194;-71
2023/09/22 08:44:05;;;;;;;1.42;0.80;;;22.60;88.00;;;;;;4939215;28;20189;-72
2023/09/22 08:46:35;;;;;;;0.98;0.85;;;22.60;88.10;;;;;;4970217;28;20218;-71
2023/09/22 08:49:01;;;;;;;0.77;0.77;;;22.60;88.10;;;;;;4939660;28;20407;-71
2023/09/22 08:51:27;;;;;;;0.50;0.50;;;22.60;88.20;;;;;;4949350;28;20261;-71
2023/09/22 08:53:55;;;;;;;0.60;0.60;;;22.60;88.20;;;;;;4983895;28;20181;-71
2023/09/22 08:56:25;;;;;;;1.05;0.70;;;22.60;88.10;;;;;;4955631;28;20246;-72
2023/09/22 08:58:51;;;;;;;0.95;0.73;;;22.60;88.00;;;;;;4939460;28;20201;-72
2023/09/22 09:01:17;;;;;;;0.55;0.55;;;22.60;88.10;;;;;;4963644;28;20197;-71
2023/09/22 09:03:44;;;;;;;0.55;0.55;;;22.60;88.00;;;;;;4974064;28;20198;-71
2023/09/22 09:06:14;;;;;;;0.70;0.70;;;22.60;88.00;;;;;;4958143;28;20209;-72
2023/09/22 09:08:39;;;;;;;0.95;0.70;;;22.60;88.00;;;;;;4976606;28;20680;-71
2023/09/22 09:11:12;;;;;;;0.60;0.60;;;22.60;88.00;;;;;;4950273;28;20192;-72
2023/09/22 09:13:38;;;;;;;0.43;0.43;;;22.60;87.90;;;;;;4973964;28;20185;-72
2023/09/22 09:16:07;;;;;;;0.90;0.88;;;22.60;87.90;;;;;;4952513;28;20612;-72
2023/09/22 09:18:34;;;;;;;0.70;0.70;;;22.60;88.00;;;;;;4948888;28;20600;-71
2023/09/22 09:21:16;;;;;;;2.03;0.50;;;22.60;88.00;;;;;;4969693;28;20221;-72
2023/09/22 09:23:53;;;;;;;0.90;0.50;;;22.60;88.00;;;;;;4959948;28;20199;-71
2023/09/22 09:26:30;;;;;;;0.50;0.50;;;22.60;88.00;;;;;;4940290;28;20209;-72
2023/09/22 09:28:58;;;;;;;0.63;0.63;;;22.60;88.00;;;;;;4942217;28;20272;-72
2023/09/22 09:31:46;;;;;;;1.02;0.70;;;22.60;88.00;;;;;;4936326;28;20194;-72
2023/09/22 09:34:14;;;;;;;0.60;0.60;;;22.60;87.90;;;;;;4941781;28;20214;-71
2023/09/22 09:36:41;;;;;;;0.60;0.60;;;22.60;88.00;;;;;;4958528;28;20258;-71
2023/09/22 09:39:11;;;;;;;0.88;0.73;;;22.60;88.00;;;;;;4973245;28;20197;-71
2023/09/22 09:41:42;;;;;;;0.52;0.50;;;22.60;87.90;;;;;;4944430;28;20561;-71
2023/09/22 09:44:09;;;;;;;0.60;0.60;;;22.60;87.90;;;;;;4953785;28;20200;-72
2023/09/22 09:46:38;;;;;;;0.90;0.90;;;22.60;88.00;;;;;;4938571;28;20214;-71
2023/09/22 09:49:09;;;;;;;0.80;0.80;;;22.60;87.90;;;;;;4942725;28;20193;-71
2023/09/22 09:51:39;;;;;;;0.82;0.60;;;22.60;88.00;;;;;;4961346;28;20251;-71
2023/09/22 09:54:08;;;;;;;0.70;0.70;;;22.60;87.90;;;;;;4967079;28;20185;-71
2023/09/22 09:56:41;;;;;;;0.55;0.55;;;22.60;87.90;;;;;;4959412;28;20217;-71
2023/09/22 09:59:08;;;;;;;0.70;0.70;;;22.60;88.00;;;;;;4975170;28;20279;-71
2023/09/22 10:01:36;;;;;;;0.50;0.50;;;22.50;87.90;;;;;;4952447;28;20205;-73
2023/09/22 10:04:04;;;;;;;0.80;0.80;;;22.60;88.00;;;;;;4972423;28;20601;-72
2023/09/22 10:06:33;;;;;;;0.80;0.80;;;22.60;88.00;;;;;;4983176;28;20269;-71
2023/09/22 10:08:59;;;;;;;0.80;0.70;;;22.60;88.00;;;;;;4962587;28;20569;-71
2023/09/22 10:11:25;;;;;;;0.70;0.70;;;22.60;88.00;;;;;;4975517;28;20197;-71
2023/09/22 10:13:51;;;;;;;0.60;0.60;;;22.60;88.00;;;;;;4947125;28;20185;-71
2023/09/22 10:16:29;;;;;;;0.70;0.70;;;22.60;88.00;;;;;;4967531;28;20660;-72
2023/09/22 10:18:56;;;;;;;0.60;0.60;;;22.60;88.00;;;;;;4963808;28;20190;-71
2023/09/22 10:21:39;;;;;;;0.55;0.55;;;22.60;88.00;;;;;;4950342;28;20192;-71
2023/09/22 10:24:32;;;;;;;0.88;0.68;;;22.60;88.00;;;;;;4961614;28;20693;-71
2023/09/22 10:27:07;;;;;;;1.20;0.70;;;22.60;88.00;;;;;;4980115;28;20574;-72
2023/09/22 10:29:33;;;;;;;0.88;0.50;;;22.60;88.00;;;;;;4952058;28;20197;-71
2023/09/22 10:34:49;;;;;;;0.70;0.70;;;22.60;87.80;;;;;;4984619;28;20189;-71
2023/09/22 10:37:19;;;;;;;0.70;0.60;;;22.60;87.80;;;;;;4954312;28;20222;-71
2023/09/22 10:39:52;;;;;;;0.80;0.80;;;22.60;87.80;;;;;;4936250;28;20197;-71
2023/09/22 10:42:20;;;;;;;0.70;0.70;;;22.60;87.60;;;;;;4957434;28;20197;-71
2023/09/22 10:45:05;;;;;;;0.98;0.60;;;22.60;87.60;;;;;;4951255;28;20197;-71
2023/09/22 10:47:49;;;;;;;0.70;0.70;;;22.60;87.50;;;;;;4963774;28;20673;-71
2023/09/22 10:50:30;;;;;;;0.60;0.57;;;22.60;87.70;;;;;;4980831;28;20189;-71
2023/09/22 10:53:03;;;;;;;0.70;0.70;;;22.60;88.50;;;;;;4963855;28;20196;-71
2023/09/22 10:55:41;;;;;;;0.60;0.60;;;22.60;87.50;;;;;;4953770;28;20186;-71
2023/09/22 10:58:16;;;;;;;0.70;0.70;;;22.60;87.50;;;;;;4941603;28;20209;-71
2023/09/22 11:00:59;;;;;;;1.45;0.60;;;22.60;87.40;;;;;;4986493;28;20192;-71
2023/09/22 11:03:26;;;;;;;0.70;0.70;;;22.60;87.40;;;;;;4941112;28;20190;-72
2023/09/22 11:06:06;;;;;;;0.93;0.50;;;22.60;87.40;;;;;;4936275;28;20244;-71
2023/09/22 11:08:33;;;;;;;0.80;0.80;;;22.60;87.40;;;;;;4942207;28;20202;-71
2023/09/22 11:11:00;;;;;;;0.52;0.50;;;22.50;87.30;;;;;;4940002;28;20192;-71
2023/09/22 11:13:27;;;;;;;1.00;0.80;;;22.60;87.40;;;;;;4947255;28;20283;-71
2023/09/22 11:15:59;;;;;;;0.65;0.65;;;22.60;87.40;;;;;;4951057;28;20184;-73
2023/09/22 11:18:28;;;;;;;0.65;0.60;;;22.60;87.40;;;;;;4942146;28;20345;-71
2023/09/22 11:21:11;;;;;;;0.70;0.70;;;22.60;87.40;;;;;;4959426;28;20225;-71
2023/09/22 11:23:39;;;;;;;0.50;0.50;;;22.50;87.30;;;;;;4963068;28;20244;-71
2023/09/22 11:26:12;;;;;;;0.68;0.68;;;22.60;87.50;;;;;;4959975;28;20205;-71
2023/09/22 11:28:45;;;;;;;0.82;0.73;;;22.50;87.30;;;;;;4952743;28;20221;-71
2023/09/22 11:31:21;;;;;;;0.50;0.50;;;22.60;87.40;;;;;;4959604;28;20243;-71
2023/09/22 11:34:02;;;;;;;1.45;0.50;;;22.50;87.30;;;;;;4984267;28;20192;-71
2023/09/22 11:36:28;;;;;;;0.68;0.68;;;22.50;87.30;;;;;;4942702;28;20197;-72
2023/09/22 11:38:55;;;;;;;0.95;0.70;;;22.60;87.40;;;;;;4943391;28;20192;-71
2023/09/22 11:41:22;;;;;;;0.93;0.80;;;22.60;87.30;;;;;;4968671;28;20687;-71
2023/09/22 11:43:52;;;;;;;1.33;0.65;;;22.60;87.40;;;;;;4947620;28;20194;-71
2023/09/22 11:46:28;;;;;;;0.70;0.60;;;22.50;87.20;;;;;;4975063;28;20223;-71
2023/09/22 11:49:05;;;;;;;0.70;0.70;;;22.60;87.30;;;;;;4954826;28;20235;-71
2023/09/22 11:51:50;;;;;;;0.82;0.80;;;22.50;87.00;;;;;;4954016;28;20198;-71
2023/09/22 11:54:23;;;;;;;0.80;0.80;;;22.50;86.80;;;;;;4966919;28;20204;-71
2023/09/22 11:56:51;;;;;;;0.60;0.60;;;22.50;86.80;;;;;;4945655;28;20202;-71
2023/09/22 11:59:19;;;;;;;0.50;0.50;;;22.60;86.80;;;;;;4950573;28;20196;-71
2023/09/22 12:01:48;;;;;;;0.73;0.73;;;22.60;86.80;;;;;;4961123;28;20197;-71
2023/09/22 12:04:14;;;;;;;0.60;0.60;;;22.60;86.80;;;;;;4960677;28;20245;-71
2023/09/22 12:06:40;;;;;;;0.70;0.70;;;22.60;86.80;;;;;;4956532;28;20288;-71
2023/09/22 12:09:08;;;;;;;0.60;0.60;;;22.60;86.70;;;;;;4935873;28;20268;-71
2023/09/22 12:11:35;;;;;;;0.60;0.60;;;22.50;86.60;;;;;;4940880;28;20193;-71
2023/09/22 12:14:08;;;;;;;0.60;0.60;;;22.60;86.70;;;;;;4946268;28;20196;-71
2023/09/22 12:16:34;;;;;;;0.73;0.70;;;22.60;86.70;;;;;;4937241;28;20193;-71
2023/09/22 12:19:00;;;;;;;0.60;0.60;;;22.60;86.70;;;;;;4945502;28;20182;-71
2023/09/22 12:21:28;;;;;;;0.50;0.50;;;22.60;86.70;;;;;;4966186;28;20197;-70
2023/09/22 12:23:54;;;;;;;0.50;0.50;;;22.60;86.70;;;;;;4954259;28;20228;-71
2023/09/22 12:26:20;;;;;;;0.77;0.77;;;22.60;86.70;;;;;;4962042;28;20223;-70
2023/09/22 12:28:48;;;;;;;0.40;0.40;;;22.60;86.40;;;;;;4963678;28;20194;-71
2023/09/22 12:31:14;;;;;;;0.60;0.50;;;22.60;86.30;;;;;;4950920;28;20190;-71
2023/09/22 12:33:39;;;;;;;0.50;0.50;;;22.50;86.20;;;;;;4950294;28;20217;-72
2023/09/22 12:36:06;;;;;;;0.65;0.65;;;22.60;86.30;;;;;;4952997;28;20189;-71
2023/09/22 12:38:32;;;;;;;0.60;0.60;;;22.60;86.40;;;;;;4974774;28;20209;-71
2023/09/22 12:40:58;;;;;;;0.40;0.40;;;22.60;86.30;;;;;;4942116;28;20190;-71
2023/09/22 12:43:25;;;;;;;0.52;0.52;;;22.50;86.10;;;;;;4967523;28;20195;-70
2023/09/22 12:45:52;;;;;;;0.95;0.60;;;22.60;86.20;;;;;;4963408;28;20212;-72
2023/09/22 12:48:18;;;;;;;0.57;0.57;;;22.60;86.10;;;;;;4937494;28;20216;-71
2023/09/22 12:50:52;;;;;;;0.50;0.50;;;22.60;86.10;;;;;;4939400;28;20228;-71
2023/09/22 12:53:18;;;;;;;0.95;0.60;;;22.60;86.00;;;;;;4939430;28;20654;-71
2023/09/22 12:55:43;;;;;;;0.40;0.40;;;22.60;86.10;;;;;;4946360;28;20208;-73